Time;durP1;ratioP1;P1;durP2;ratioP2;P2;SDS_P1;SDS_P2;PMS_P1;PMS_P2;Temp;Humidity;BMP_temperature;BMP_pressure;BME280_temperature;BME280_humidity;BME280_pressure;Samples;Min_cycle;Max_cycle;Signal;HPM_P1;HPM_P2
2022/09/01 00:00:27;;;;;;;6.03;2.80;;;14.50;99.90;;;;;;4992321;28;20046;-87
2022/09/01 00:02:56;;;;;;;6.22;2.30;;;14.50;99.90;;;;;;5006603;28;20479;-87
2022/09/01 00:05:22;;;;;;;5.43;2.30;;;14.50;99.90;;;;;;4990591;28;20085;-87
2022/09/01 00:07:49;;;;;;;5.70;2.60;;;14.50;99.90;;;;;;5006597;28;20062;-87
2022/09/01 00:10:15;;;;;;;5.97;2.13;;;14.40;99.90;;;;;;5007194;28;20046;-89
2022/09/01 00:12:42;;;;;;;7.15;2.40;;;14.40;99.90;;;;;;4991878;28;20042;-87
2022/09/01 00:15:11;;;;;;;5.53;2.40;;;14.40;99.90;;;;;;5006385;28;20046;-88
2022/09/01 00:17:37;;;;;;;6.05;2.10;;;14.40;99.90;;;;;;5006685;28;20137;-87
2022/09/01 00:20:04;;;;;;;5.97;2.17;;;14.30;99.90;;;;;;4973476;28;20097;-87
2022/09/01 00:22:30;;;;;;;6.68;2.47;;;14.30;99.90;;;;;;5006770;28;20494;-87
2022/09/01 00:24:55;;;;;;;7.20;2.63;;;14.30;99.90;;;;;;4973232;28;20046;-88
2022/09/01 00:27:21;;;;;;;6.68;2.10;;;14.30;99.90;;;;;;5006974;28;20042;-87
2022/09/01 00:29:46;;;;;;;6.18;2.42;;;14.30;99.90;;;;;;5006321;28;20038;-87
2022/09/01 00:32:12;;;;;;;6.78;2.60;;;14.20;99.90;;;;;;4991173;28;20046;-89
2022/09/01 00:34:38;;;;;;;6.85;2.13;;;14.20;99.90;;;;;;5006027;28;20102;-88
2022/09/01 00:37:04;;;;;;;4.68;2.20;;;14.20;99.90;;;;;;4989278;28;20057;-87
2022/09/01 00:39:30;;;;;;;5.40;2.20;;;14.20;99.90;;;;;;4990220;28;20046;-86
2022/09/01 00:41:57;;;;;;;5.50;2.20;;;14.10;99.90;;;;;;5005477;28;20506;-86
2022/09/01 00:44:25;;;;;;;5.20;1.95;;;14.10;99.90;;;;;;4973799;28;20046;-87
2022/09/01 00:46:54;;;;;;;6.57;2.30;;;14.10;99.90;;;;;;5005274;28;20078;-88
2022/09/01 00:49:32;;;;;;;5.28;2.50;;;14.10;99.90;;;;;;4990935;28;20400;-85
2022/09/01 00:52:28;;;;;;;4.75;1.95;;;14.10;99.90;;;;;;4989193;28;20478;-87
2022/09/01 00:54:57;;;;;;;5.55;2.10;;;14.00;99.90;;;;;;4988373;28;20524;-89
2022/09/01 00:57:23;;;;;;;6.32;2.20;;;14.00;99.90;;;;;;5006123;28;20057;-87
2022/09/01 01:00:05;;;;;;;5.85;2.17;;;14.00;99.90;;;;;;5005362;28;20062;-88
2022/09/01 01:02:31;;;;;;;5.18;2.30;;;14.00;99.90;;;;;;5005602;28;20042;-87
2022/09/01 01:04:58;;;;;;;6.45;2.30;;;13.90;99.90;;;;;;4989997;28;20483;-86
2022/09/01 01:07:26;;;;;;;4.85;2.05;;;13.90;99.90;;;;;;4990895;28;20053;-88
2022/09/01 01:09:52;;;;;;;6.57;2.40;;;13.90;99.90;;;;;;4989877;28;20042;-86
2022/09/01 01:12:18;;;;;;;5.95;2.28;;;13.90;99.90;;;;;;4991249;28;20047;-86
2022/09/01 01:14:46;;;;;;;3.85;1.88;;;13.80;99.90;;;;;;4972893;28;20038;-86
2022/09/01 01:17:12;;;;;;;5.93;2.17;;;13.80;99.90;;;;;;4988896;28;20043;-86
2022/09/01 01:23:09;;;;;;;4.68;2.20;;;13.70;99.90;;;;;;4989291;28;20102;-86
2022/09/01 01:25:38;;;;;;;3.78;2.03;;;13.70;99.90;;;;;;4990780;28;20042;-86
2022/09/01 01:28:20;;;;;;;6.97;2.35;;;13.60;99.90;;;;;;4989440;28;20710;-86
2022/09/01 01:31:00;;;;;;;6.63;2.40;;;13.60;99.90;;;;;;5004352;28;20058;-86
2022/09/01 01:33:32;;;;;;;6.10;2.13;;;13.60;99.90;;;;;;4973361;28;20105;-87
2022/09/01 01:35:58;;;;;;;4.70;2.40;;;13.50;99.90;;;;;;5004559;28;20054;-88
2022/09/01 01:38:26;;;;;;;5.30;2.30;;;13.50;99.90;;;;;;5005497;28;20054;-86
2022/09/01 01:40:53;;;;;;;4.72;2.00;;;13.50;99.90;;;;;;5004381;28;20049;-87
2022/09/01 01:43:20;;;;;;;4.85;2.15;;;13.50;99.90;;;;;;4990155;28;20050;-87
2022/09/01 01:45:47;;;;;;;5.07;2.30;;;13.40;99.90;;;;;;5004138;28;20042;-86
2022/09/01 01:48:14;;;;;;;5.65;2.35;;;13.40;99.90;;;;;;5005400;28;20046;-86
2022/09/01 01:50:41;;;;;;;4.85;2.40;;;13.40;99.90;;;;;;4990903;28;20042;-86
2022/09/01 01:53:08;;;;;;;7.13;2.60;;;13.40;99.90;;;;;;4989787;28;20050;-89
2022/09/01 01:55:34;;;;;;;5.40;2.40;;;13.30;99.90;;;;;;4990145;28;20047;-86
2022/09/01 01:58:00;;;;;;;5.60;2.25;;;13.30;99.90;;;;;;4971484;28;20133;-86
2022/09/01 02:00:33;;;;;;;5.53;2.50;;;13.30;99.90;;;;;;4989729;28;20051;-86
2022/09/01 02:02:59;;;;;;;4.88;2.42;;;13.30;99.90;;;;;;4988130;28;20042;-86
2022/09/01 02:05:31;;;;;;;6.68;2.40;;;13.30;99.90;;;;;;4972460;28;20046;-87
2022/09/01 02:08:03;;;;;;;4.30;2.20;;;13.30;99.90;;;;;;4971661;28;20046;-88
2022/09/01 02:10:35;;;;;;;6.53;2.63;;;13.30;99.90;;;;;;4990334;28;20043;-86
2022/09/01 02:13:05;;;;;;;5.15;2.50;;;13.30;99.90;;;;;;4987893;28;20042;-87
2022/09/01 02:15:37;;;;;;;5.20;2.55;;;13.20;99.90;;;;;;5004963;28;20398;-86
2022/09/01 02:18:03;;;;;;;;;;;13.20;99.90;;;;;;4971906;28;20458;-89
2022/09/01 02:20:28;;;;;;;6.07;2.30;;;13.00;99.90;;;;;;4988722;28;20346;-86
2022/09/01 02:23:09;;;;;;;4.40;2.20;;;13.10;99.90;;;;;;5003988;28;20042;-86
2022/09/01 02:25:36;;;;;;;5.18;2.50;;;13.00;99.90;;;;;;4988870;28;20130;-86
2022/09/01 02:28:03;;;;;;;5.32;2.40;;;13.00;99.90;;;;;;4989297;28;20380;-87
2022/09/01 02:30:31;;;;;;;4.25;2.30;;;13.00;99.90;;;;;;4989544;28;20114;-88
2022/09/01 02:32:58;;;;;;;4.72;2.35;;;13.00;99.90;;;;;;5003983;28;20449;-86
2022/09/01 02:35:30;;;;;;;5.88;2.33;;;13.00;99.90;;;;;;4989714;28;20454;-87
2022/09/01 02:37:59;;;;;;;4.82;2.30;;;12.90;99.90;;;;;;5003757;28;20046;-87
2022/09/01 02:40:29;;;;;;;4.60;2.20;;;13.00;99.90;;;;;;4989831;28;20042;-86
2022/09/01 02:42:58;;;;;;;4.95;2.47;;;12.90;99.90;;;;;;4987654;28;20099;-86
2022/09/01 02:45:24;;;;;;;5.53;2.60;;;12.90;99.90;;;;;;5004757;28;20038;-88
2022/09/01 02:47:51;;;;;;;5.85;2.60;;;12.90;99.90;;;;;;4988580;28;20043;-87
2022/09/01 02:50:17;;;;;;;4.93;2.50;;;12.90;99.90;;;;;;5004692;28;20057;-87
2022/09/01 02:52:47;;;;;;;6.63;2.58;;;12.90;99.90;;;;;;4989613;28;20082;-88
2022/09/01 02:55:18;;;;;;;4.78;2.50;;;12.80;99.90;;;;;;4989460;28;20046;-87
2022/09/01 02:57:47;;;;;;;4.85;2.65;;;12.90;99.90;;;;;;5003885;28;20050;-88
2022/09/01 03:00:32;;;;;;;5.82;2.50;;;12.80;99.90;;;;;;4989031;28;20058;-87
2022/09/01 03:03:00;;;;;;;5.88;2.67;;;12.80;99.90;;;;;;5003833;28;20410;-86
2022/09/01 03:05:29;;;;;;;6.15;2.75;;;12.80;99.90;;;;;;5004757;28;20402;-88
2022/09/01 03:08:00;;;;;;;6.30;2.53;;;12.80;99.90;;;;;;4971084;28;20101;-87
2022/09/01 03:10:31;;;;;;;;;;;12.80;99.90;;;;;;4988489;28;20047;-87
2022/09/01 03:13:07;;;;;;;7.40;2.67;;;12.70;99.90;;;;;;4986816;28;19984;-87
2022/09/01 03:15:35;;;;;;;5.55;2.50;;;12.80;99.90;;;;;;4972277;28;20038;-86
2022/09/01 03:18:02;;;;;;;6.20;2.90;;;12.80;99.90;;;;;;4972462;28;20376;-87
2022/09/01 03:20:34;;;;;;;5.45;2.53;;;12.80;99.90;;;;;;4975821;28;20104;-87
2022/09/01 03:23:02;;;;;;;6.28;2.55;;;12.80;99.90;;;;;;4991858;28;20049;-86
2022/09/01 03:25:28;;;;;;;6.18;2.60;;;12.80;99.90;;;;;;5007718;28;20046;-87
2022/09/01 03:28:00;;;;;;;6.28;2.70;;;12.80;99.90;;;;;;4991563;28;20426;-86
2022/09/01 03:30:31;;;;;;;4.70;2.40;;;12.90;99.90;;;;;;4975555;28;20043;-87
2022/09/01 03:32:57;;;;;;;7.13;2.67;;;12.90;99.90;;;;;;4991884;28;20050;-87
2022/09/01 03:35:24;;;;;;;7.35;2.70;;;12.80;99.90;;;;;;4975195;28;20056;-87
2022/09/01 03:37:51;;;;;;;6.15;2.90;;;12.80;99.90;;;;;;5006802;28;20042;-86
2022/09/01 03:40:17;;;;;;;6.30;2.50;;;12.80;99.90;;;;;;4992738;28;20440;-86
2022/09/01 03:42:43;;;;;;;6.32;2.63;;;12.80;99.90;;;;;;4991999;28;20129;-85
2022/09/01 03:45:11;;;;;;;7.88;2.97;;;12.80;99.90;;;;;;5006758;28;20185;-86
2022/09/01 03:47:42;;;;;;;5.68;2.67;;;12.80;99.90;;;;;;5007627;28;20050;-87
2022/09/01 03:50:19;;;;;;;4.78;2.47;;;12.80;99.90;;;;;;5006925;28;20061;-87
2022/09/01 03:52:57;;;;;;;6.57;2.50;;;12.80;99.90;;;;;;5008025;28;20112;-86
2022/09/01 03:55:26;;;;;;;6.47;2.60;;;12.80;99.90;;;;;;5007670;28;20466;-86
2022/09/01 03:58:05;;;;;;;7.70;2.70;;;12.80;99.90;;;;;;5006290;28;20046;-88
2022/09/01 04:00:36;;;;;;;7.20;2.50;;;12.80;99.90;;;;;;4990843;28;20125;-87
2022/09/01 04:03:04;;;;;;;6.22;2.83;;;12.90;99.90;;;;;;5006308;28;20081;-87
2022/09/01 04:05:32;;;;;;;5.55;2.70;;;12.90;99.90;;;;;;5007047;28;20053;-87
2022/09/01 04:08:02;;;;;;;4.43;2.42;;;12.90;99.90;;;;;;4991242;28;20042;-87
2022/09/01 04:10:33;;;;;;;6.05;2.78;;;12.90;99.90;;;;;;4991534;28;20487;-85
2022/09/01 04:12:59;;;;;;;6.25;2.83;;;13.00;99.90;;;;;;4973493;28;20046;-87
2022/09/01 04:15:26;;;;;;;6.07;2.60;;;13.00;99.90;;;;;;5006899;28;20034;-87
2022/09/01 04:18:18;;;;;;;7.00;2.90;;;13.00;99.90;;;;;;4991088;28;20058;-86
2022/09/01 04:20:49;;;;;;;6.15;3.00;;;13.00;99.90;;;;;;4974021;28;20046;-86
2022/09/01 04:23:32;;;;;;;7.43;2.78;;;13.00;99.90;;;;;;4990876;28;20398;-87
2022/09/01 04:26:07;;;;;;;5.93;2.83;;;13.00;99.90;;;;;;4990617;28;20050;-86
2022/09/01 04:28:35;;;;;;;6.63;2.78;;;13.00;99.90;;;;;;5006712;28;20487;-89
2022/09/01 04:31:07;;;;;;;7.15;2.85;;;13.00;99.90;;;;;;4989693;28;20125;-87
2022/09/01 04:33:38;;;;;;;5.88;2.85;;;13.00;99.90;;;;;;4990295;28;20038;-87
2022/09/01 04:36:19;;;;;;;;;;;13.10;99.90;;;;;;5006316;28;20050;-87
2022/09/01 04:38:46;;;;;;;5.35;2.60;;;13.00;99.90;;;;;;4989844;28;19928;-87
2022/09/01 04:41:16;;;;;;;6.60;2.70;;;13.00;99.90;;;;;;5005907;28;20054;-87
2022/09/01 04:43:47;;;;;;;5.60;2.88;;;13.00;99.90;;;;;;4973859;28;20038;-87
2022/09/01 04:46:16;;;;;;;7.28;2.90;;;13.10;99.90;;;;;;4991594;28;20062;-87
2022/09/01 04:48:43;;;;;;;6.03;3.03;;;13.10;99.90;;;;;;5006685;28;20044;-85
2022/09/01 04:51:14;;;;;;;7.20;2.90;;;13.10;99.90;;;;;;5006369;28;20435;-87
2022/09/01 04:53:42;;;;;;;6.97;3.00;;;13.10;99.90;;;;;;4991027;28;20050;-84
2022/09/01 04:56:10;;;;;;;6.70;2.90;;;13.10;99.90;;;;;;5005572;28;20078;-86
2022/09/01 04:58:37;;;;;;;6.55;2.78;;;13.10;99.90;;;;;;4989983;28;20058;-86
2022/09/01 05:01:13;;;;;;;6.35;2.88;;;13.00;99.90;;;;;;4990186;28;20053;-86
2022/09/01 05:03:38;;;;;;;7.70;3.08;;;13.10;99.90;;;;;;5006050;28;20048;-86
2022/09/01 05:06:04;;;;;;;6.97;2.90;;;13.10;99.90;;;;;;5005162;28;20050;-86
2022/09/01 05:08:33;;;;;;;6.18;3.08;;;13.10;99.90;;;;;;5005630;28;20455;-88
2022/09/01 05:11:06;;;;;;;5.78;2.80;;;13.10;99.90;;;;;;4972403;28;20038;-86
2022/09/01 05:13:32;;;;;;;6.35;3.00;;;13.10;99.90;;;;;;4990760;28;20462;-89
2022/09/01 05:16:11;;;;;;;5.70;2.83;;;13.10;99.90;;;;;;5004942;28;20129;-86
2022/09/01 05:18:44;;;;;;;5.75;2.88;;;13.10;99.90;;;;;;4973284;28;20050;-87
2022/09/01 05:21:10;;;;;;;6.97;3.00;;;13.10;99.90;;;;;;5005442;28;20100;-86
2022/09/01 05:23:39;;;;;;;6.20;3.00;;;13.10;99.90;;;;;;4989275;28;20046;-86
2022/09/01 05:26:13;;;;;;;6.20;2.80;;;13.20;99.90;;;;;;5004693;28;20137;-86
2022/09/01 05:28:40;;;;;;;6.97;2.80;;;13.20;99.90;;;;;;4973016;28;20045;-87
2022/09/01 05:31:06;;;;;;;6.13;2.80;;;13.20;99.90;;;;;;4972262;28;20073;-85
2022/09/01 05:33:35;;;;;;;5.55;2.70;;;13.30;99.90;;;;;;4990545;28;20462;-86
2022/09/01 05:36:06;;;;;;;6.68;2.83;;;13.30;99.90;;;;;;5004536;28;20078;-86
2022/09/01 05:38:33;;;;;;;6.45;2.75;;;13.30;99.90;;;;;;4989890;28;20100;-86
2022/09/01 05:41:07;;;;;;;6.90;2.83;;;13.30;99.90;;;;;;5004351;28;20394;-86
2022/09/01 05:43:34;;;;;;;6.35;2.92;;;13.40;99.90;;;;;;5005460;28;20070;-85
2022/09/01 05:46:02;;;;;;;7.78;2.72;;;13.40;99.90;;;;;;5004409;28;20058;-87
2022/09/01 05:48:30;;;;;;;10.65;3.00;;;13.40;99.90;;;;;;4990477;28;20046;-87
2022/09/01 05:50:58;;;;;;;7.22;2.80;;;13.50;99.90;;;;;;5004372;28;20038;-86
2022/09/01 05:53:24;;;;;;;7.78;2.70;;;13.60;99.90;;;;;;4990724;28;20050;-86
2022/09/01 05:55:56;;;;;;;6.38;2.75;;;13.60;99.90;;;;;;5004501;28;20046;-86
2022/09/01 05:58:24;;;;;;;8.60;2.75;;;13.60;99.90;;;;;;4990319;28;20065;-87
2022/09/01 06:00:53;;;;;;;6.72;2.97;;;13.70;99.90;;;;;;4987880;28;20053;-86
2022/09/01 06:03:21;;;;;;;6.07;2.92;;;13.80;99.90;;;;;;4990050;28;20068;-87
2022/09/01 06:05:51;;;;;;;5.78;2.80;;;13.80;99.90;;;;;;4972195;28;20399;-87
2022/09/01 06:08:18;;;;;;;6.47;2.83;;;13.90;99.90;;;;;;4989836;28;20539;-87
2022/09/01 06:10:44;;;;;;;6.15;3.00;;;13.90;99.90;;;;;;5004649;28;20096;-87
2022/09/01 06:13:14;;;;;;;5.55;3.05;;;14.00;99.90;;;;;;4972223;28;20046;-87
2022/09/01 06:15:41;;;;;;;6.43;2.67;;;14.10;99.90;;;;;;4990171;28;20044;-85
2022/09/01 06:18:10;;;;;;;6.60;2.95;;;14.30;99.90;;;;;;4988806;28;20046;-86
2022/09/01 06:20:41;;;;;;;6.38;2.85;;;14.30;99.90;;;;;;5004598;28;20046;-87
2022/09/01 06:23:07;;;;;;;4.65;2.47;;;14.40;99.90;;;;;;4988106;28;20388;-87
2022/09/01 06:25:36;;;;;;;5.13;2.67;;;14.50;99.90;;;;;;5004964;28;20046;-86
2022/09/01 06:28:03;;;;;;;5.90;3.10;;;14.60;99.90;;;;;;4971505;28;20042;-87
2022/09/01 06:30:29;;;;;;;5.88;2.70;;;14.60;99.90;;;;;;5004853;28;20046;-88
2022/09/01 06:32:55;;;;;;;6.60;2.88;;;14.70;99.90;;;;;;4989116;28;20424;-87
2022/09/01 06:35:28;;;;;;;6.40;2.70;;;14.80;99.90;;;;;;4971826;28;20077;-86
2022/09/01 06:37:55;;;;;;;5.95;2.90;;;14.90;99.90;;;;;;5003992;28;20046;-87
2022/09/01 06:40:24;;;;;;;5.63;2.70;;;15.00;99.90;;;;;;4988838;28;20054;-87
2022/09/01 06:42:51;;;;;;;5.72;2.95;;;15.10;99.90;;;;;;5004126;28;20050;-87
2022/09/01 06:45:19;;;;;;;6.32;2.90;;;15.10;99.90;;;;;;4989567;28;20042;-86
2022/09/01 06:47:46;;;;;;;7.55;2.75;;;15.20;99.90;;;;;;5003971;28;20047;-86
2022/09/01 06:50:14;;;;;;;7.35;2.75;;;15.20;99.90;;;;;;5004016;28;20046;-88
2022/09/01 06:52:43;;;;;;;5.40;2.50;;;15.30;99.90;;;;;;4973182;28;20053;-87
2022/09/01 06:55:13;;;;;;;5.75;2.60;;;15.40;99.90;;;;;;4975311;28;20463;-86
2022/09/01 06:57:43;;;;;;;7.40;3.00;;;15.50;99.90;;;;;;4993076;28;20491;-88
2022/09/01 07:00:19;;;;;;;7.17;3.03;;;15.60;99.90;;;;;;5007756;28;20409;-85
2022/09/01 07:02:53;;;;;;;6.57;3.20;;;15.70;99.90;;;;;;5007693;28;20289;-87
2022/09/01 07:05:20;;;;;;;6.72;2.70;;;15.80;99.90;;;;;;4993145;28;20048;-85
2022/09/01 07:07:54;;;;;;;7.60;2.53;;;15.80;99.90;;;;;;4992531;28;20439;-87
2022/09/01 07:10:24;;;;;;;6.35;2.70;;;15.90;99.90;;;;;;4975566;28;20128;-86
2022/09/01 07:12:55;;;;;;;6.28;2.90;;;16.10;99.90;;;;;;5007240;28;20050;-87
2022/09/01 07:15:23;;;;;;;4.80;2.30;;;16.10;99.90;;;;;;4993242;28;20089;-86
2022/09/01 07:17:52;;;;;;;4.78;2.33;;;16.20;99.90;;;;;;4992862;28;20038;-86
2022/09/01 07:20:21;;;;;;;5.13;2.50;;;16.30;99.90;;;;;;4991018;28;20089;-86
2022/09/01 07:22:48;;;;;;;5.35;2.47;;;16.40;99.90;;;;;;4992190;28;20422;-86
2022/09/01 07:25:14;;;;;;;5.25;2.30;;;16.50;99.90;;;;;;5007517;28;20034;-85
2022/09/01 07:27:47;;;;;;;4.80;2.08;;;16.50;99.90;;;;;;4993012;28;20046;-85
2022/09/01 07:30:14;;;;;;;4.40;2.20;;;16.70;99.90;;;;;;4975538;28;20426;-87
2022/09/01 07:32:42;;;;;;;5.30;2.45;;;16.70;99.90;;;;;;4975187;28;20061;-88
2022/09/01 07:35:08;;;;;;;7.45;2.65;;;16.80;99.90;;;;;;4974087;28;20034;-89
2022/09/01 07:37:37;;;;;;;6.75;2.13;;;16.90;99.90;;;;;;5007623;28;20046;-87
2022/09/01 07:40:09;;;;;;;5.70;2.22;;;16.90;99.90;;;;;;4991820;28;20364;-89
2022/09/01 07:42:37;;;;;;;6.10;2.72;;;17.00;99.90;;;;;;4991646;28;20042;-86
2022/09/01 07:45:07;;;;;;;4.65;2.30;;;17.00;99.90;;;;;;5006868;28;20064;-86
2022/09/01 07:47:35;;;;;;;6.53;2.85;;;17.10;99.90;;;;;;4992063;28;20406;-88
2022/09/01 07:50:07;;;;;;;5.43;2.40;;;17.10;99.90;;;;;;4991728;28;20069;-87
2022/09/01 07:52:41;;;;;;;5.03;2.20;;;17.20;99.90;;;;;;4992443;28;20140;-87
2022/09/01 07:55:16;;;;;;;5.18;2.50;;;17.30;99.90;;;;;;5006611;28;20089;-86
2022/09/01 07:57:45;;;;;;;4.78;2.20;;;17.40;99.90;;;;;;5007092;28;20045;-89
2022/09/01 08:00:13;;;;;;;5.85;2.35;;;17.40;99.90;;;;;;4974388;28;20133;-86
2022/09/01 08:02:40;;;;;;;4.85;1.98;;;17.50;99.90;;;;;;4991966;28;20411;-87
2022/09/01 08:05:07;;;;;;;6.35;2.20;;;17.60;99.90;;;;;;4989911;28;20442;-89
2022/09/01 08:07:35;;;;;;;4.95;2.30;;;17.60;99.90;;;;;;5007438;28;20093;-87
2022/09/01 08:10:00;;;;;;;6.57;2.50;;;17.70;99.90;;;;;;5006099;28;20050;-87
2022/09/01 08:12:26;;;;;;;4.45;2.17;;;17.80;99.90;;;;;;5007345;28;20064;-88
2022/09/01 08:14:52;;;;;;;4.03;1.95;;;17.80;99.90;;;;;;5005904;28;20125;-86
2022/09/01 08:17:18;;;;;;;6.40;2.22;;;17.90;99.90;;;;;;4973999;28;20130;-85
2022/09/01 08:19:45;;;;;;;5.18;2.03;;;18.00;99.90;;;;;;4991607;28;20069;-86
2022/09/01 08:22:11;;;;;;;5.20;2.17;;;18.00;99.90;;;;;;5006777;28;20380;-85
2022/09/01 08:24:37;;;;;;;5.40;2.05;;;18.10;99.90;;;;;;5006831;28;20054;-88
2022/09/01 08:27:03;;;;;;;5.45;1.90;;;18.20;99.90;;;;;;4973338;28;20050;-86
2022/09/01 08:29:29;;;;;;;5.18;2.30;;;18.30;99.90;;;;;;4991503;28;20054;-87
2022/09/01 08:31:54;;;;;;;6.55;1.98;;;18.40;99.90;;;;;;4972740;28;20054;-88
2022/09/01 08:34:20;;;;;;;5.93;1.73;;;18.40;99.90;;;;;;4991514;28;20085;-87
2022/09/01 08:36:46;;;;;;;4.45;1.80;;;18.50;99.90;;;;;;5006010;28;20053;-89
2022/09/01 08:39:11;;;;;;;5.20;1.75;;;18.50;99.90;;;;;;4973694;28;20046;-87
2022/09/01 08:42:05;;;;;;;6.97;1.98;;;18.60;99.90;;;;;;5006396;28;20039;-86
2022/09/01 08:44:33;;;;;;;3.83;1.50;;;18.60;99.90;;;;;;5006842;28;20395;-88
2022/09/01 08:47:05;;;;;;;4.78;1.73;;;18.70;99.90;;;;;;4972375;28;20181;-84
2022/09/01 08:49:35;;;;;;;6.20;1.75;;;18.70;99.90;;;;;;4991289;28;20035;-86
2022/09/01 08:52:23;;;;;;;3.20;1.35;;;18.80;99.90;;;;;;5005546;28;20057;-86
2022/09/01 08:54:52;;;;;;;3.53;1.67;;;19.00;99.90;;;;;;4989441;28;20092;-88
2022/09/01 08:57:37;;;;;;;4.03;1.48;;;19.10;99.90;;;;;;4973535;28;20038;-85
2022/09/01 09:00:10;;;;;;;5.47;1.70;;;19.10;99.90;;;;;;4989487;28;20058;-85
2022/09/01 09:03:04;;;;;;;3.88;1.48;;;19.10;99.90;;;;;;4989779;28;20042;-87
2022/09/01 09:05:58;;;;;;;3.75;1.40;;;19.20;99.90;;;;;;4973697;28;20050;-85
2022/09/01 09:08:42;;;;;;;6.03;1.60;;;19.20;99.90;;;;;;5006424;28;20404;-86
2022/09/01 09:11:37;;;;;;;6.25;1.80;;;19.20;99.90;;;;;;4972706;28;20144;-85
2022/09/01 09:14:06;;;;;;;5.68;1.40;;;19.30;99.90;;;;;;4988889;28;20483;-85
2022/09/01 09:16:46;;;;;;;3.15;1.30;;;19.40;99.90;;;;;;5004920;28;20061;-85
2022/09/01 09:19:29;;;;;;;5.03;1.10;;;19.50;99.90;;;;;;4991042;28;20411;-89
2022/09/01 09:21:57;;;;;;;3.85;1.13;;;19.60;99.90;;;;;;4972360;28;20133;-87
2022/09/01 09:25:06;;;;;;;4.50;1.30;;;19.70;99.90;;;;;;5005899;28;20042;-87
2022/09/01 09:27:36;;;;;;;3.78;1.20;;;19.70;99.90;;;;;;4968911;28;20043;-88
2022/09/01 09:30:09;;;;;;;3.42;1.10;;;19.80;99.90;;;;;;4951121;28;20491;-87
2022/09/01 09:32:46;;;;;;;4.05;1.10;;;19.80;99.90;;;;;;4952672;28;20066;-87
2022/09/01 09:35:23;;;;;;;5.00;1.17;;;19.90;99.90;;;;;;4952341;28;20496;-86
2022/09/01 09:37:49;;;;;;;3.97;1.20;;;19.90;99.90;;;;;;4952227;28;20053;-85
2022/09/01 09:40:24;;;;;;;5.25;1.10;;;20.00;99.90;;;;;;4936921;28;20043;-86
2022/09/01 09:42:55;;;;;;;4.50;1.17;;;20.00;99.90;;;;;;4967668;28;20113;-86
2022/09/01 09:45:25;;;;;;;2.33;1.00;;;20.10;99.90;;;;;;4952023;28;20138;-88
2022/09/01 09:47:52;;;;;;;2.67;1.00;;;20.10;99.90;;;;;;4951762;28;20487;-86
2022/09/01 09:50:21;;;;;;;1.80;1.00;;;20.10;99.90;;;;;;4936486;28;20046;-87
2022/09/01 09:52:48;;;;;;;3.83;0.98;;;20.20;99.90;;;;;;4951769;28;20100;-87
2022/09/01 09:55:28;;;;;;;3.25;1.00;;;20.20;99.90;;;;;;4952201;28;20062;-85
2022/09/01 09:57:58;;;;;;;3.15;1.08;;;20.30;99.90;;;;;;4935507;28;20134;-88
2022/09/01 10:00:33;;;;;;;5.03;1.10;;;20.30;99.90;;;;;;4954213;28;20531;-85
2022/09/01 10:03:07;;;;;;;2.85;1.00;;;20.30;99.90;;;;;;5004213;28;20050;-88
2022/09/01 10:05:50;;;;;;;4.70;1.20;;;20.40;99.90;;;;;;4989217;28;20042;-88
2022/09/01 10:08:33;;;;;;;4.15;1.00;;;20.30;99.90;;;;;;4972648;28;20057;-84
2022/09/01 10:10:59;;;;;;;5.13;1.05;;;20.40;99.90;;;;;;5004105;28;20130;-86
2022/09/01 10:13:28;;;;;;;3.75;1.10;;;20.50;99.90;;;;;;5004756;28;20399;-86
2022/09/01 10:16:00;;;;;;;7.75;1.10;;;20.60;99.90;;;;;;5004327;28;20376;-87
2022/09/01 10:18:35;;;;;;;2.85;1.23;;;20.60;99.90;;;;;;5005009;28;20096;-89
2022/09/01 10:21:12;;;;;;;5.13;1.10;;;20.70;99.90;;;;;;4989058;28;20043;-86
2022/09/01 10:23:38;;;;;;;4.78;1.10;;;20.90;99.90;;;;;;4990073;28;20046;-84
2022/09/01 10:26:10;;;;;;;4.32;1.08;;;20.90;99.90;;;;;;4989190;28;20043;-87
2022/09/01 10:28:47;;;;;;;2.05;0.90;;;20.90;99.90;;;;;;4976222;28;20046;-89
2022/09/01 10:31:14;;;;;;;2.95;1.02;;;20.90;99.90;;;;;;4993803;28;20046;-87
2022/09/01 10:33:39;;;;;;;2.20;1.00;;;20.90;99.90;;;;;;4993639;28;20054;-85
2022/09/01 10:36:06;;;;;;;3.47;1.02;;;20.90;99.90;;;;;;4975342;28;20050;-86
2022/09/01 10:38:31;;;;;;;3.88;1.00;;;21.00;99.90;;;;;;5008872;28;20050;-87
2022/09/01 10:41:07;;;;;;;3.78;1.00;;;21.10;99.90;;;;;;5008021;28;20038;-89
2022/09/01 10:43:39;;;;;;;2.70;1.00;;;21.10;99.90;;;;;;4993576;28;20046;-88
2022/09/01 10:46:20;;;;;;;3.05;0.90;;;21.10;99.90;;;;;;4975503;28;20054;-86
2022/09/01 10:48:51;;;;;;;3.72;1.08;;;21.30;99.50;;;;;;4975384;28;20085;-87
2022/09/01 10:51:17;;;;;;;2.88;1.00;;;21.40;99.20;;;;;;4976454;28;20318;-88
2022/09/01 10:53:48;;;;;;;2.00;1.00;;;21.50;99.50;;;;;;4976000;28;20164;-85
2022/09/01 10:56:16;;;;;;;3.15;1.00;;;21.50;98.60;;;;;;4993141;28;20134;-87
2022/09/01 10:59:20;;;;;;;3.47;1.00;;;21.40;98.90;;;;;;5008197;28;20105;-86
2022/09/01 11:01:46;;;;;;;7.55;1.00;;;21.30;98.90;;;;;;5007852;28;20133;-87
2022/09/01 11:04:14;;;;;;;3.65;1.00;;;21.10;99.10;;;;;;4993029;28;20130;-85
2022/09/01 11:06:40;;;;;;;8.07;1.20;;;21.20;99.00;;;;;;5008423;28;20046;-86
2022/09/01 11:09:18;;;;;;;4.32;1.20;;;21.20;98.60;;;;;;4992508;28;20054;-88
2022/09/01 11:11:56;;;;;;;4.47;1.10;;;21.30;98.40;;;;;;5007475;28;20042;-87
2022/09/01 11:14:25;;;;;;;3.22;1.02;;;21.30;97.80;;;;;;5008734;28;20419;-88
2022/09/01 11:17:26;;;;;;;4.93;1.10;;;21.30;98.10;;;;;;5007735;28;20042;-87
2022/09/01 11:19:57;;;;;;;5.70;1.45;;;21.40;97.70;;;;;;5007194;28;20081;-87
2022/09/01 11:22:53;;;;;;;4.78;1.00;;;21.40;97.90;;;;;;4975527;28;20047;-86
2022/09/01 11:25:43;;;;;;;1.75;0.80;;;21.40;98.20;;;;;;5007751;28;20050;-86
2022/09/01 11:28:09;;;;;;;3.22;0.90;;;21.40;98.40;;;;;;5007675;28;20357;-87
2022/09/01 11:31:15;;;;;;;3.45;0.90;;;21.40;98.00;;;;;;4975180;28;20105;-86
2022/09/01 11:33:43;;;;;;;3.90;1.00;;;21.60;98.00;;;;;;4955637;28;20074;-89
2022/09/01 11:36:18;;;;;;;5.30;1.00;;;21.70;97.50;;;;;;4954438;28;20145;-89
2022/09/01 11:38:53;;;;;;;2.60;0.90;;;21.80;97.60;;;;;;4961960;28;20103;-86
2022/09/01 11:41:50;;;;;;;2.90;1.10;;;22.00;96.80;;;;;;4944174;28;20062;-87
2022/09/01 11:44:32;;;;;;;3.60;0.82;;;22.20;96.90;;;;;;4965728;28;20190;-91
2022/09/01 11:47:03;;;;;;;2.63;1.00;;;22.40;96.70;;;;;;4956076;28;20134;-88
2022/09/01 11:49:39;;;;;;;4.35;0.80;;;22.50;96.00;;;;;;4934159;28;20134;-85
2022/09/01 11:52:05;;;;;;;3.15;1.10;;;22.60;95.20;;;;;;4949745;28;20195;-86
2022/09/01 11:54:40;;;;;;;5.25;1.08;;;22.70;94.60;;;;;;4950594;28;20086;-83
2022/09/01 11:57:36;;;;;;;4.13;0.85;;;22.70;93.90;;;;;;4959612;28;20058;-85
2022/09/01 12:00:24;;;;;;;3.00;0.88;;;22.60;93.40;;;;;;4935970;29;20444;-84
2022/09/01 12:02:51;;;;;;;4.88;0.90;;;22.60;93.60;;;;;;4947774;28;20039;-84
2022/09/01 12:05:43;;;;;;;3.28;1.00;;;22.40;94.40;;;;;;4942744;29;20055;-83
2022/09/01 12:08:18;;;;;;;3.92;1.08;;;22.40;94.60;;;;;;4970007;28;20857;-86
2022/09/01 12:10:45;;;;;;;2.65;1.13;;;22.50;94.60;;;;;;5009003;28;20038;-83
2022/09/01 12:13:14;;;;;;;2.28;0.93;;;22.50;94.50;;;;;;5009426;28;20050;-85
2022/09/01 12:15:41;;;;;;;3.88;1.00;;;22.60;94.40;;;;;;5011591;28;20089;-85
2022/09/01 12:18:12;;;;;;;4.50;1.27;;;22.70;94.10;;;;;;4992019;28;20501;-87
2022/09/01 12:20:38;;;;;;;4.05;1.05;;;22.70;93.60;;;;;;4977649;28;20399;-85
2022/09/01 12:23:25;;;;;;;2.92;0.80;;;22.60;93.40;;;;;;4988514;28;20046;-87
2022/09/01 12:25:57;;;;;;;5.03;1.30;;;22.60;92.90;;;;;;4997908;28;20099;-89
2022/09/01 12:28:26;;;;;;;3.08;1.10;;;22.70;94.00;;;;;;5020975;28;20069;-87
2022/09/01 12:30:53;;;;;;;3.25;0.90;;;22.80;93.60;;;;;;4996601;28;20061;-92
2022/09/01 12:33:19;;;;;;;3.65;1.00;;;22.90;93.40;;;;;;5004399;28;20050;-88
2022/09/01 12:35:45;;;;;;;7.63;1.30;;;22.80;92.70;;;;;;4998349;28;20033;-87
2022/09/01 12:38:20;;;;;;;10.45;1.27;;;22.80;92.50;;;;;;4989458;28;20049;-88
2022/09/01 12:40:48;;;;;;;4.35;1.00;;;22.70;92.50;;;;;;5002672;28;20493;-89
2022/09/01 12:43:31;;;;;;;2.50;0.90;;;22.70;92.40;;;;;;5007579;28;20096;-89
2022/09/01 12:45:59;;;;;;;3.95;1.20;;;22.60;92.20;;;;;;5009068;28;20057;-90
2022/09/01 12:48:30;;;;;;;5.30;1.10;;;22.60;91.40;;;;;;4999546;28;20038;-95
2022/09/01 12:50:59;;;;;;;3.70;0.88;;;22.60;90.40;;;;;;4984460;28;20042;-96
2022/09/01 12:53:28;;;;;;;2.58;0.80;;;22.70;88.70;;;;;;5004093;28;20042;-96
2022/09/01 12:56:02;;;;;;;2.97;0.80;;;22.80;89.30;;;;;;4982855;28;20048;-93
2022/09/01 12:58:29;;;;;;;3.83;0.77;;;22.90;88.60;;;;;;5001881;28;20184;-92
2022/09/01 13:01:06;;;;;;;2.55;0.80;;;22.90;90.10;;;;;;4995013;28;20169;-91
2022/09/01 13:03:33;;;;;;;2.58;1.05;;;23.00;89.90;;;;;;4995752;28;20039;-94
2022/09/01 13:06:01;;;;;;;4.30;0.90;;;23.00;90.40;;;;;;4991750;28;20077;-94
2022/09/01 13:08:31;;;;;;;3.70;0.93;;;23.10;89.40;;;;;;4992560;28;20043;-93
2022/09/01 13:11:09;;;;;;;2.00;0.95;;;23.20;89.40;;;;;;4977187;28;20045;-95